Sao Joao da Mata, Brazil
Current Conditions -  °F | °C
As of 10:00 AM on Friday 24 Oct 2014 (Local Time) from SBGW Reporting Station
Few Clouds Few Clouds  
Wind Chill: 24°   Ceiling: Unl
Heat Index: 24°   Visibility: 6mi
Dew Point: 15°   Wind: 6mph
Humidity: 57%   Direction: 80°E
Pressure: 30.06"   Gusts: NA
Location:  21.93°S, 45.93°W
Report Text: SBGW 241200Z 08005KT 9999 FEW030 24/15 Q1018
Loading
Personal Weather Stations






























Interactive Weather Map
Tropical Storm Tracking
New forecast layout! Learn more

10-Day Weather Forecast

Advertisements
Track Severe Weather on mobile